sensor_id;sensor_type;location;lat;lon;timestamp;pressure;altitude;pressure_sealevel;temperature;humidity
75852;BME280;64500;52.632;20.656;2023-10-31T00:02:26;99208.92;;;27.11;31.84
75852;BME280;64500;52.632;20.656;2023-10-31T00:04:53;99204.40;;;27.14;31.79
75852;BME280;64500;52.632;20.656;2023-10-31T00:07:20;99204.20;;;27.17;31.69
75852;BME280;64500;52.632;20.656;2023-10-31T00:09:47;99201.64;;;27.14;31.97
75852;BME280;64500;52.632;20.656;2023-10-31T00:12:13;99197.04;;;27.13;31.76
75852;BME280;64500;52.632;20.656;2023-10-31T00:14:40;99188.12;;;27.12;31.84
75852;BME280;64500;52.632;20.656;2023-10-31T00:17:07;99185.19;;;27.09;31.83
75852;BME280;64500;52.632;20.656;2023-10-31T00:19:34;99179.20;;;27.07;31.83
75852;BME280;64500;52.632;20.656;2023-10-31T00:22:01;99184.84;;;27.06;31.84
75852;BME280;64500;52.632;20.656;2023-10-31T00:24:28;99181.63;;;27.02;31.68
75852;BME280;64500;52.632;20.656;2023-10-31T00:26:55;99171.09;;;26.99;31.82
75852;BME280;64500;52.632;20.656;2023-10-31T00:29:22;99167.66;;;26.97;31.75
75852;BME280;64500;52.632;20.656;2023-10-31T00:31:49;99165.11;;;26.96;32.06
75852;BME280;64500;52.632;20.656;2023-10-31T00:34:16;99161.85;;;26.99;31.95
75852;BME280;64500;52.632;20.656;2023-10-31T00:36:43;99152.23;;;26.96;31.91
75852;BME280;64500;52.632;20.656;2023-10-31T00:39:10;99152.95;;;26.93;32.09
75852;BME280;64500;52.632;20.656;2023-10-31T00:41:37;99146.85;;;26.99;32.11
75852;BME280;64500;52.632;20.656;2023-10-31T00:44:04;99143.98;;;27.03;32.13
75852;BME280;64500;52.632;20.656;2023-10-31T00:46:31;99131.63;;;27.08;31.98
75852;BME280;64500;52.632;20.656;2023-10-31T00:48:58;99129.69;;;27.15;32.11
75852;BME280;64500;52.632;20.656;2023-10-31T00:51:25;99132.04;;;27.19;32.20
75852;BME280;64500;52.632;20.656;2023-10-31T00:53:51;99126.21;;;27.24;32.20
75852;BME280;64500;52.632;20.656;2023-10-31T00:56:18;99125.83;;;27.29;32.19
75852;BME280;64500;52.632;20.656;2023-10-31T00:58:45;99122.02;;;27.29;32.30
75852;BME280;64500;52.632;20.656;2023-10-31T01:01:12;99122.23;;;27.30;32.05
75852;BME280;64500;52.632;20.656;2023-10-31T01:03:39;99111.55;;;27.27;32.03
75852;BME280;64500;52.632;20.656;2023-10-31T01:06:06;99110.73;;;27.28;32.02
75852;BME280;64500;52.632;20.656;2023-10-31T01:08:34;99103.38;;;27.27;32.12
75852;BME280;64500;52.632;20.656;2023-10-31T01:11:01;99097.53;;;27.29;32.27
75852;BME280;64500;52.632;20.656;2023-10-31T01:13:28;99094.98;;;27.35;31.98
75852;BME280;64500;52.632;20.656;2023-10-31T01:15:55;99084.14;;;27.40;32.24
75852;BME280;64500;52.632;20.656;2023-10-31T01:18:22;99078.23;;;27.41;32.31
75852;BME280;64500;52.632;20.656;2023-10-31T01:20:49;99070.41;;;27.38;31.98
75852;BME280;64500;52.632;20.656;2023-10-31T01:23:16;99062.83;;;27.31;32.13
75852;BME280;64500;52.632;20.656;2023-10-31T01:25:43;99060.61;;;27.25;32.11
75852;BME280;64500;52.632;20.656;2023-10-31T01:28:10;99053.95;;;27.22;32.17
75852;BME280;64500;52.632;20.656;2023-10-31T01:30:36;99040.91;;;27.20;31.98
75852;BME280;64500;52.632;20.656;2023-10-31T01:33:04;99024.42;;;27.08;32.31
75852;BME280;64500;52.632;20.656;2023-10-31T01:35:31;99008.75;;;27.12;32.27
75852;BME280;64500;52.632;20.656;2023-10-31T01:37:57;99009.14;;;27.18;32.17
75852;BME280;64500;52.632;20.656;2023-10-31T01:40:24;99009.21;;;27.24;32.19
75852;BME280;64500;52.632;20.656;2023-10-31T01:42:51;99016.64;;;27.28;32.21
75852;BME280;64500;52.632;20.656;2023-10-31T01:45:18;99019.80;;;27.30;32.34
75852;BME280;64500;52.632;20.656;2023-10-31T01:47:45;99019.00;;;27.48;32.06
75852;BME280;64500;52.632;20.656;2023-10-31T01:50:14;99013.96;;;27.59;32.39
75852;BME280;64500;52.632;20.656;2023-10-31T01:52:41;99007.35;;;27.65;32.24
75852;BME280;64500;52.632;20.656;2023-10-31T01:55:08;99008.98;;;27.72;32.21
75852;BME280;64500;52.632;20.656;2023-10-31T01:57:35;98997.23;;;27.77;32.15
75852;BME280;64500;52.632;20.656;2023-10-31T02:00:03;98993.98;;;27.83;32.31
75852;BME280;64500;52.632;20.656;2023-10-31T02:02:30;98990.87;;;27.90;32.22
75852;BME280;64500;52.632;20.656;2023-10-31T02:04:59;98988.98;;;27.99;32.15
75852;BME280;64500;52.632;20.656;2023-10-31T02:07:27;98981.13;;;28.11;31.81
75852;BME280;64500;52.632;20.656;2023-10-31T02:09:54;98980.06;;;28.19;31.89
75852;BME280;64500;52.632;20.656;2023-10-31T02:12:34;98980.39;;;28.20;31.62
75852;BME280;64500;52.632;20.656;2023-10-31T02:15:01;98959.36;;;28.22;31.79
75852;BME280;64500;52.632;20.656;2023-10-31T02:17:29;98937.02;;;28.15;31.81
75852;BME280;64500;52.632;20.656;2023-10-31T02:19:56;98935.63;;;28.13;31.99
75852;BME280;64500;52.632;20.656;2023-10-31T02:22:23;98942.66;;;28.06;31.89
75852;BME280;64500;52.632;20.656;2023-10-31T02:24:50;98936.77;;;28.03;32.08
75852;BME280;64500;52.632;20.656;2023-10-31T02:27:17;98927.20;;;27.96;32.29
75852;BME280;64500;52.632;20.656;2023-10-31T02:29:44;98926.15;;;27.86;32.23
75852;BME280;64500;52.632;20.656;2023-10-31T02:32:11;98920.23;;;27.87;32.30
75852;BME280;64500;52.632;20.656;2023-10-31T02:34:38;98909.08;;;28.02;32.07
75852;BME280;64500;52.632;20.656;2023-10-31T02:37:05;98900.80;;;27.96;32.40
75852;BME280;64500;52.632;20.656;2023-10-31T02:39:33;98895.20;;;27.95;32.28
75852;BME280;64500;52.632;20.656;2023-10-31T02:42:00;98895.38;;;28.00;32.45
75852;BME280;64500;52.632;20.656;2023-10-31T02:44:27;98894.70;;;28.10;32.28
75852;BME280;64500;52.632;20.656;2023-10-31T02:46:55;98887.48;;;28.19;32.36
75852;BME280;64500;52.632;20.656;2023-10-31T02:49:22;98879.70;;;28.33;32.13
75852;BME280;64500;52.632;20.656;2023-10-31T02:51:49;98872.30;;;28.34;32.21
75852;BME280;64500;52.632;20.656;2023-10-31T02:54:15;98876.09;;;28.33;32.38
75852;BME280;64500;52.632;20.656;2023-10-31T02:56:42;98879.30;;;28.32;32.38
75852;BME280;64500;52.632;20.656;2023-10-31T02:59:09;98862.93;;;28.40;32.00
75852;BME280;64500;52.632;20.656;2023-10-31T03:01:36;98854.80;;;28.45;32.07
75852;BME280;64500;52.632;20.656;2023-10-31T03:04:03;98847.02;;;28.38;32.07
75852;BME280;64500;52.632;20.656;2023-10-31T03:06:30;98832.86;;;28.39;32.10
75852;BME280;64500;52.632;20.656;2023-10-31T03:08:57;98822.74;;;28.36;32.06
75852;BME280;64500;52.632;20.656;2023-10-31T03:11:24;98825.39;;;28.33;31.88
75852;BME280;64500;52.632;20.656;2023-10-31T03:13:52;98823.84;;;28.33;31.85
75852;BME280;64500;52.632;20.656;2023-10-31T03:16:20;98820.81;;;28.35;31.97
75852;BME280;64500;52.632;20.656;2023-10-31T03:18:47;98814.96;;;28.40;31.76
75852;BME280;64500;52.632;20.656;2023-10-31T03:21:13;98814.02;;;28.31;31.87
75852;BME280;64500;52.632;20.656;2023-10-31T03:23:46;98821.85;;;28.25;31.81
75852;BME280;64500;52.632;20.656;2023-10-31T03:26:13;98818.04;;;28.22;32.05
75852;BME280;64500;52.632;20.656;2023-10-31T03:28:39;98811.15;;;28.25;31.76
75852;BME280;64500;52.632;20.656;2023-10-31T03:31:07;98812.17;;;28.28;31.86
75852;BME280;64500;52.632;20.656;2023-10-31T03:33:33;98809.67;;;28.27;31.53
75852;BME280;64500;52.632;20.656;2023-10-31T03:36:00;98810.33;;;28.26;31.74
75852;BME280;64500;52.632;20.656;2023-10-31T03:38:27;98809.40;;;28.19;31.56
75852;BME280;64500;52.632;20.656;2023-10-31T03:40:54;98808.52;;;28.16;31.52
75852;BME280;64500;52.632;20.656;2023-10-31T03:43:21;98800.73;;;28.17;31.58
75852;BME280;64500;52.632;20.656;2023-10-31T03:45:48;98783.48;;;28.12;31.83
75852;BME280;64500;52.632;20.656;2023-10-31T03:48:15;98777.52;;;28.12;31.62
75852;BME280;64500;52.632;20.656;2023-10-31T03:50:43;98769.94;;;28.12;31.80
75852;BME280;64500;52.632;20.656;2023-10-31T03:53:10;98766.25;;;28.18;31.84
75852;BME280;64500;52.632;20.656;2023-10-31T03:55:37;98757.17;;;28.22;31.92
75852;BME280;64500;52.632;20.656;2023-10-31T03:58:04;98748.05;;;28.28;32.05
75852;BME280;64500;52.632;20.656;2023-10-31T04:00:32;98737.40;;;28.37;32.29
75852;BME280;64500;52.632;20.656;2023-10-31T04:02:59;98733.15;;;28.42;32.12
75852;BME280;64500;52.632;20.656;2023-10-31T04:05:26;98728.20;;;28.52;31.88
75852;BME280;64500;52.632;20.656;2023-10-31T04:07:53;98723.67;;;28.62;32.06
75852;BME280;64500;52.632;20.656;2023-10-31T04:10:20;98716.31;;;28.70;31.63
75852;BME280;64500;52.632;20.656;2023-10-31T04:12:47;98715.89;;;28.74;31.77
75852;BME280;64500;52.632;20.656;2023-10-31T04:15:14;98701.31;;;28.71;31.60
75852;BME280;64500;52.632;20.656;2023-10-31T04:17:41;98709.70;;;28.75;32.13
75852;BME280;64500;52.632;20.656;2023-10-31T04:20:08;98705.84;;;28.80;31.83
75852;BME280;64500;52.632;20.656;2023-10-31T04:22:35;98707.01;;;28.87;31.75
75852;BME280;64500;52.632;20.656;2023-10-31T04:25:02;98704.42;;;28.94;31.78
75852;BME280;64500;52.632;20.656;2023-10-31T04:27:29;98700.19;;;28.94;31.61
75852;BME280;64500;52.632;20.656;2023-10-31T04:29:56;98704.08;;;28.98;31.72
75852;BME280;64500;52.632;20.656;2023-10-31T04:32:23;98704.57;;;29.07;31.77
75852;BME280;64500;52.632;20.656;2023-10-31T04:34:50;98702.24;;;29.11;31.69
75852;BME280;64500;52.632;20.656;2023-10-31T04:37:17;98698.27;;;29.15;31.57
75852;BME280;64500;52.632;20.656;2023-10-31T04:39:44;98685.02;;;29.15;31.73
75852;BME280;64500;52.632;20.656;2023-10-31T04:42:11;98684.67;;;29.18;31.76
75852;BME280;64500;52.632;20.656;2023-10-31T04:44:38;98671.88;;;29.18;31.58
75852;BME280;64500;52.632;20.656;2023-10-31T04:47:05;98669.58;;;29.19;31.49
75852;BME280;64500;52.632;20.656;2023-10-31T04:49:36;98672.58;;;29.18;31.80
75852;BME280;64500;52.632;20.656;2023-10-31T04:52:03;98658.19;;;29.20;31.63
75852;BME280;64500;52.632;20.656;2023-10-31T04:54:30;98648.50;;;29.19;31.42
75852;BME280;64500;52.632;20.656;2023-10-31T04:56:57;98644.46;;;29.20;31.47
75852;BME280;64500;52.632;20.656;2023-10-31T04:59:24;98638.19;;;29.29;31.58
75852;BME280;64500;52.632;20.656;2023-10-31T05:01:51;98637.58;;;29.30;31.60
75852;BME280;64500;52.632;20.656;2023-10-31T05:04:19;98632.70;;;29.31;31.72
75852;BME280;64500;52.632;20.656;2023-10-31T05:06:46;98626.16;;;29.32;31.56
75852;BME280;64500;52.632;20.656;2023-10-31T05:09:13;98624.95;;;29.40;31.40
75852;BME280;64500;52.632;20.656;2023-10-31T05:11:41;98618.92;;;29.45;31.51
75852;BME280;64500;52.632;20.656;2023-10-31T05:14:08;98607.01;;;29.45;31.54
75852;BME280;64500;52.632;20.656;2023-10-31T05:16:42;98606.38;;;29.46;31.44
75852;BME280;64500;52.632;20.656;2023-10-31T05:19:09;98602.29;;;29.51;31.54
75852;BME280;64500;52.632;20.656;2023-10-31T05:21:37;98592.51;;;29.53;31.37
75852;BME280;64500;52.632;20.656;2023-10-31T05:24:03;98598.66;;;29.56;31.38
75852;BME280;64500;52.632;20.656;2023-10-31T05:26:30;98588.58;;;29.63;31.20
75852;BME280;64500;52.632;20.656;2023-10-31T05:28:57;98577.27;;;29.70;31.17
75852;BME280;64500;52.632;20.656;2023-10-31T05:31:25;98580.58;;;29.86;31.03
75852;BME280;64500;52.632;20.656;2023-10-31T05:33:52;98582.67;;;30.01;30.88
75852;BME280;64500;52.632;20.656;2023-10-31T05:36:22;98583.55;;;30.11;30.84
75852;BME280;64500;52.632;20.656;2023-10-31T05:38:50;98585.16;;;30.19;30.72
75852;BME280;64500;52.632;20.656;2023-10-31T05:41:16;98577.38;;;30.23;30.73
75852;BME280;64500;52.632;20.656;2023-10-31T05:43:43;98577.94;;;30.27;30.64
75852;BME280;64500;52.632;20.656;2023-10-31T05:46:10;98573.92;;;30.37;30.68
75852;BME280;64500;52.632;20.656;2023-10-31T05:48:38;98572.61;;;30.37;30.63
75852;BME280;64500;52.632;20.656;2023-10-31T05:51:12;98560.28;;;30.34;30.57
75852;BME280;64500;52.632;20.656;2023-10-31T05:53:40;98561.77;;;30.39;30.66
75852;BME280;64500;52.632;20.656;2023-10-31T05:56:08;98563.15;;;30.46;30.69
75852;BME280;64500;52.632;20.656;2023-10-31T05:58:36;98555.80;;;30.56;30.50
75852;BME280;64500;52.632;20.656;2023-10-31T06:01:03;98554.98;;;30.61;30.46
75852;BME280;64500;52.632;20.656;2023-10-31T06:03:31;98557.14;;;30.70;30.44
75852;BME280;64500;52.632;20.656;2023-10-31T06:05:58;98555.72;;;30.84;30.19
75852;BME280;64500;52.632;20.656;2023-10-31T06:08:26;98542.25;;;30.86;30.23
75852;BME280;64500;52.632;20.656;2023-10-31T06:10:56;98547.66;;;30.94;30.23
75852;BME280;64500;52.632;20.656;2023-10-31T06:13:23;98529.39;;;30.99;30.21
75852;BME280;64500;52.632;20.656;2023-10-31T06:15:55;98535.19;;;31.01;30.20
75852;BME280;64500;52.632;20.656;2023-10-31T06:18:24;98531.36;;;31.09;30.12
75852;BME280;64500;52.632;20.656;2023-10-31T06:20:51;98529.80;;;31.20;30.07
75852;BME280;64500;52.632;20.656;2023-10-31T06:23:17;98534.98;;;31.35;29.92
75852;BME280;64500;52.632;20.656;2023-10-31T06:25:44;98522.89;;;31.42;29.82
75852;BME280;64500;52.632;20.656;2023-10-31T06:28:11;98531.95;;;31.44;29.55
75852;BME280;64500;52.632;20.656;2023-10-31T06:30:38;98529.95;;;31.49;29.73
75852;BME280;64500;52.632;20.656;2023-10-31T06:33:05;98517.14;;;31.49;29.48
75852;BME280;64500;52.632;20.656;2023-10-31T06:35:34;98518.30;;;31.43;29.72
75852;BME280;64500;52.632;20.656;2023-10-31T06:38:01;98526.08;;;31.46;29.66
75852;BME280;64500;52.632;20.656;2023-10-31T06:40:28;98516.15;;;31.51;29.60
75852;BME280;64500;52.632;20.656;2023-10-31T06:42:54;98504.04;;;31.49;29.46
75852;BME280;64500;52.632;20.656;2023-10-31T06:45:21;98515.22;;;31.53;29.39
75852;BME280;64500;52.632;20.656;2023-10-31T06:47:48;98528.45;;;31.62;29.62
75852;BME280;64500;52.632;20.656;2023-10-31T06:50:15;98521.40;;;31.81;29.28
75852;BME280;64500;52.632;20.656;2023-10-31T06:52:42;98531.77;;;31.80;29.37
75852;BME280;64500;52.632;20.656;2023-10-31T06:55:09;98522.30;;;31.83;29.41
75852;BME280;64500;52.632;20.656;2023-10-31T06:57:36;98526.33;;;31.81;29.33
75852;BME280;64500;52.632;20.656;2023-10-31T07:00:04;98522.70;;;31.82;29.53
75852;BME280;64500;52.632;20.656;2023-10-31T07:02:32;98514.48;;;31.82;29.59
75852;BME280;64500;52.632;20.656;2023-10-31T07:04:58;98518.72;;;31.85;29.41
75852;BME280;64500;52.632;20.656;2023-10-31T07:07:25;98525.95;;;31.92;29.45
75852;BME280;64500;52.632;20.656;2023-10-31T07:09:52;98515.50;;;32.04;29.51
75852;BME280;64500;52.632;20.656;2023-10-31T07:12:19;98524.89;;;32.20;29.23
75852;BME280;64500;52.632;20.656;2023-10-31T07:14:46;98520.97;;;32.36;29.13
75852;BME280;64500;52.632;20.656;2023-10-31T07:17:13;98524.59;;;32.37;29.00
75852;BME280;64500;52.632;20.656;2023-10-31T07:19:40;98548.30;;;32.47;28.99
75852;BME280;64500;52.632;20.656;2023-10-31T07:22:07;98565.96;;;32.60;29.11
75852;BME280;64500;52.632;20.656;2023-10-31T07:24:34;98578.23;;;32.71;29.00
75852;BME280;64500;52.632;20.656;2023-10-31T07:27:03;98570.13;;;32.81;29.06
75852;BME280;64500;52.632;20.656;2023-10-31T07:29:30;98562.11;;;32.99;28.92
75852;BME280;64500;52.632;20.656;2023-10-31T07:31:57;98558.92;;;33.02;29.04
75852;BME280;64500;52.632;20.656;2023-10-31T07:34:24;98550.34;;;33.09;28.74
75852;BME280;64500;52.632;20.656;2023-10-31T07:36:51;98531.70;;;33.18;28.28
75852;BME280;64500;52.632;20.656;2023-10-31T07:39:18;98523.67;;;33.21;28.51
75852;BME280;64500;52.632;20.656;2023-10-31T07:41:45;98516.65;;;33.30;28.25
75852;BME280;64500;52.632;20.656;2023-10-31T07:44:12;98506.77;;;33.50;28.23
75852;BME280;64500;52.632;20.656;2023-10-31T07:46:39;98501.55;;;33.53;28.52
75852;BME280;64500;52.632;20.656;2023-10-31T07:49:06;98499.67;;;33.68;28.32
75852;BME280;64500;52.632;20.656;2023-10-31T07:51:33;98499.11;;;33.80;28.41
75852;BME280;64500;52.632;20.656;2023-10-31T07:53:59;98497.89;;;33.89;28.47
75852;BME280;64500;52.632;20.656;2023-10-31T07:56:27;98494.83;;;34.06;28.20
75852;BME280;64500;52.632;20.656;2023-10-31T07:58:54;98488.95;;;34.14;28.21
75852;BME280;64500;52.632;20.656;2023-10-31T08:01:22;98490.64;;;34.26;28.05
75852;BME280;64500;52.632;20.656;2023-10-31T08:03:49;98489.70;;;34.37;27.81
75852;BME280;64500;52.632;20.656;2023-10-31T08:06:15;98487.02;;;34.36;27.73
75852;BME280;64500;52.632;20.656;2023-10-31T08:08:42;98487.25;;;34.36;27.85
75852;BME280;64500;52.632;20.656;2023-10-31T08:11:10;98486.11;;;34.36;27.59
75852;BME280;64500;52.632;20.656;2023-10-31T08:13:37;98489.58;;;34.46;27.67
75852;BME280;64500;52.632;20.656;2023-10-31T08:16:05;98486.92;;;34.50;27.37
75852;BME280;64500;52.632;20.656;2023-10-31T08:18:32;98474.89;;;34.36;27.24
75852;BME280;64500;52.632;20.656;2023-10-31T08:21:00;98462.28;;;34.23;27.46
75852;BME280;64500;52.632;20.656;2023-10-31T08:23:28;98474.08;;;34.13;27.62
75852;BME280;64500;52.632;20.656;2023-10-31T08:25:55;98481.74;;;34.21;27.66
75852;BME280;64500;52.632;20.656;2023-10-31T08:28:22;98482.24;;;34.10;27.58
75852;BME280;64500;52.632;20.656;2023-10-31T08:30:49;98469.40;;;34.02;27.98
75852;BME280;64500;52.632;20.656;2023-10-31T08:33:16;98464.08;;;33.99;27.70
75852;BME280;64500;52.632;20.656;2023-10-31T08:35:43;98453.19;;;33.98;27.59
75852;BME280;64500;52.632;20.656;2023-10-31T08:38:10;98452.29;;;33.82;27.94
75852;BME280;64500;52.632;20.656;2023-10-31T08:40:37;98456.78;;;33.64;27.53
75852;BME280;64500;52.632;20.656;2023-10-31T08:43:03;98458.55;;;33.61;27.51
75852;BME280;64500;52.632;20.656;2023-10-31T08:45:33;98445.39;;;33.60;27.49
75852;BME280;64500;52.632;20.656;2023-10-31T08:48:00;98449.47;;;33.63;27.20
75852;BME280;64500;52.632;20.656;2023-10-31T08:50:28;98452.15;;;33.60;27.41
75852;BME280;64500;52.632;20.656;2023-10-31T08:52:54;98447.91;;;33.58;27.48
75852;BME280;64500;52.632;20.656;2023-10-31T08:55:21;98449.34;;;33.64;27.30
75852;BME280;64500;52.632;20.656;2023-10-31T08:57:48;98454.86;;;33.63;27.25
75852;BME280;64500;52.632;20.656;2023-10-31T09:00:15;98460.27;;;33.68;27.16
75852;BME280;64500;52.632;20.656;2023-10-31T09:02:42;98457.61;;;33.80;27.01
75852;BME280;64500;52.632;20.656;2023-10-31T09:05:09;98458.56;;;33.72;27.05
75852;BME280;64500;52.632;20.656;2023-10-31T09:07:36;98462.73;;;33.80;27.19
75852;BME280;64500;52.632;20.656;2023-10-31T09:10:03;98470.73;;;33.87;27.23
75852;BME280;64500;52.632;20.656;2023-10-31T09:12:31;98473.08;;;33.94;27.25
75852;BME280;64500;52.632;20.656;2023-10-31T09:14:58;98473.03;;;33.99;27.20
75852;BME280;64500;52.632;20.656;2023-10-31T09:17:25;98468.48;;;34.08;27.21
75852;BME280;64500;52.632;20.656;2023-10-31T09:19:52;98472.91;;;34.26;27.15
75852;BME280;64500;52.632;20.656;2023-10-31T09:22:20;98470.02;;;34.38;26.96
75852;BME280;64500;52.632;20.656;2023-10-31T09:24:47;98470.84;;;34.40;26.72
75852;BME280;64500;52.632;20.656;2023-10-31T09:27:14;98479.63;;;34.44;26.72
75852;BME280;64500;52.632;20.656;2023-10-31T09:29:41;98477.21;;;34.42;26.72
75852;BME280;64500;52.632;20.656;2023-10-31T09:32:08;98485.77;;;34.43;26.45
75852;BME280;64500;52.632;20.656;2023-10-31T09:34:35;98490.85;;;34.26;26.87
75852;BME280;64500;52.632;20.656;2023-10-31T09:37:02;98491.77;;;34.32;26.53
75852;BME280;64500;52.632;20.656;2023-10-31T09:39:29;98487.83;;;34.41;26.67
75852;BME280;64500;52.632;20.656;2023-10-31T09:41:56;98479.29;;;34.41;26.87
75852;BME280;64500;52.632;20.656;2023-10-31T09:44:23;98481.48;;;34.52;26.41
75852;BME280;64500;52.632;20.656;2023-10-31T09:46:51;98476.49;;;34.46;26.50
75852;BME280;64500;52.632;20.656;2023-10-31T09:49:19;98485.02;;;34.53;26.57
75852;BME280;64500;52.632;20.656;2023-10-31T09:51:46;98483.48;;;34.63;26.53
75852;BME280;64500;52.632;20.656;2023-10-31T09:54:14;98480.95;;;34.91;26.75
75852;BME280;64500;52.632;20.656;2023-10-31T09:56:42;98478.27;;;35.01;26.62
75852;BME280;64500;52.632;20.656;2023-10-31T09:59:10;98484.62;;;34.97;26.60
75852;BME280;64500;52.632;20.656;2023-10-31T10:01:37;98477.73;;;34.94;26.52
75852;BME280;64500;52.632;20.656;2023-10-31T10:04:04;98476.29;;;34.81;26.34
75852;BME280;64500;52.632;20.656;2023-10-31T10:06:31;98482.35;;;34.74;26.36
75852;BME280;64500;52.632;20.656;2023-10-31T10:08:58;98474.19;;;34.73;26.34
75852;BME280;64500;52.632;20.656;2023-10-31T10:11:25;98475.09;;;34.70;26.53
75852;BME280;64500;52.632;20.656;2023-10-31T10:13:52;98473.14;;;34.63;26.76
75852;BME280;64500;52.632;20.656;2023-10-31T10:16:32;98477.16;;;34.81;26.46
75852;BME280;64500;52.632;20.656;2023-10-31T10:19:21;98472.70;;;34.95;26.33
75852;BME280;64500;52.632;20.656;2023-10-31T10:21:54;98475.42;;;35.13;26.37
75852;BME280;64500;52.632;20.656;2023-10-31T10:24:22;98481.88;;;35.19;26.35
75852;BME280;64500;52.632;20.656;2023-10-31T10:26:49;98479.84;;;35.26;26.44
75852;BME280;64500;52.632;20.656;2023-10-31T10:29:17;98486.05;;;35.31;26.26
75852;BME280;64500;52.632;20.656;2023-10-31T10:31:44;98485.14;;;35.19;26.27
75852;BME280;64500;52.632;20.656;2023-10-31T10:34:14;98489.73;;;35.20;26.14
75852;BME280;64500;52.632;20.656;2023-10-31T10:36:45;98487.00;;;35.16;26.18
75852;BME280;64500;52.632;20.656;2023-10-31T10:39:13;98488.97;;;35.23;25.96
75852;BME280;64500;52.632;20.656;2023-10-31T10:41:41;98481.71;;;35.23;26.07
75852;BME280;64500;52.632;20.656;2023-10-31T10:44:09;98484.47;;;35.31;25.92
75852;BME280;64500;52.632;20.656;2023-10-31T10:46:38;98483.44;;;35.24;25.72
75852;BME280;64500;52.632;20.656;2023-10-31T10:49:06;98481.36;;;35.23;25.68
75852;BME280;64500;52.632;20.656;2023-10-31T10:51:40;98478.95;;;35.16;25.65
75852;BME280;64500;52.632;20.656;2023-10-31T10:54:23;98476.97;;;35.08;25.66
75852;BME280;64500;52.632;20.656;2023-10-31T10:56:54;98473.80;;;35.05;25.75
75852;BME280;64500;52.632;20.656;2023-10-31T10:59:39;98472.33;;;35.02;25.75
75852;BME280;64500;52.632;20.656;2023-10-31T11:02:07;98476.50;;;34.98;25.75
75852;BME280;64500;52.632;20.656;2023-10-31T11:04:34;98479.92;;;35.07;25.79
75852;BME280;64500;52.632;20.656;2023-10-31T11:07:02;98483.76;;;34.95;25.61
75852;BME280;64500;52.632;20.656;2023-10-31T11:09:30;98485.55;;;34.94;25.77
75852;BME280;64500;52.632;20.656;2023-10-31T11:11:58;98490.86;;;34.94;25.87
75852;BME280;64500;52.632;20.656;2023-10-31T11:14:25;98494.97;;;35.01;26.00
75852;BME280;64500;52.632;20.656;2023-10-31T11:16:54;98500.49;;;35.09;25.70
75852;BME280;64500;52.632;20.656;2023-10-31T11:19:22;98498.45;;;34.94;25.72
75852;BME280;64500;52.632;20.656;2023-10-31T11:21:54;98504.95;;;34.85;25.71
75852;BME280;64500;52.632;20.656;2023-10-31T11:24:22;98506.77;;;34.69;25.82
75852;BME280;64500;52.632;20.656;2023-10-31T11:26:52;98511.73;;;34.67;25.83
75852;BME280;64500;52.632;20.656;2023-10-31T11:29:19;98523.38;;;34.59;26.08
75852;BME280;64500;52.632;20.656;2023-10-31T11:31:46;98531.05;;;34.24;26.39
75852;BME280;64500;52.632;20.656;2023-10-31T11:34:15;98538.70;;;33.98;26.61
75852;BME280;64500;52.632;20.656;2023-10-31T11:36:42;98535.34;;;33.69;26.63
75852;BME280;64500;52.632;20.656;2023-10-31T11:39:13;98545.16;;;33.38;27.21
75852;BME280;64500;52.632;20.656;2023-10-31T11:41:41;98540.00;;;33.16;27.51
75852;BME280;64500;52.632;20.656;2023-10-31T11:44:12;98537.98;;;33.15;27.57
75852;BME280;64500;52.632;20.656;2023-10-31T11:46:39;98531.35;;;33.09;28.00
75852;BME280;64500;52.632;20.656;2023-10-31T11:49:07;98528.09;;;33.09;28.03
75852;BME280;64500;52.632;20.656;2023-10-31T11:51:34;98535.20;;;33.26;28.14
75852;BME280;64500;52.632;20.656;2023-10-31T11:54:02;98534.67;;;33.42;27.93
75852;BME280;64500;52.632;20.656;2023-10-31T11:56:29;98528.07;;;33.43;28.22
75852;BME280;64500;52.632;20.656;2023-10-31T11:58:57;98534.39;;;33.56;28.12
75852;BME280;64500;52.632;20.656;2023-10-31T12:01:24;98539.48;;;33.61;28.38
75852;BME280;64500;52.632;20.656;2023-10-31T12:03:51;98536.15;;;33.71;28.66
75852;BME280;64500;52.632;20.656;2023-10-31T12:06:18;98537.56;;;33.95;28.60
75852;BME280;64500;52.632;20.656;2023-10-31T12:08:47;98538.89;;;33.91;28.57
75852;BME280;64500;52.632;20.656;2023-10-31T12:11:16;98535.10;;;33.95;28.67
75852;BME280;64500;52.632;20.656;2023-10-31T12:13:59;98543.80;;;34.19;28.19
75852;BME280;64500;52.632;20.656;2023-10-31T12:16:28;98547.58;;;34.35;28.35
75852;BME280;64500;52.632;20.656;2023-10-31T12:18:59;98549.04;;;34.33;28.34
75852;BME280;64500;52.632;20.656;2023-10-31T12:21:36;98558.63;;;34.37;28.13
75852;BME280;64500;52.632;20.656;2023-10-31T12:24:06;98559.19;;;34.53;28.00
75852;BME280;64500;52.632;20.656;2023-10-31T12:26:34;98561.88;;;34.56;28.19
75852;BME280;64500;52.632;20.656;2023-10-31T12:29:08;98561.37;;;34.68;27.57
75852;BME280;64500;52.632;20.656;2023-10-31T12:31:38;98561.25;;;34.56;27.58
75852;BME280;64500;52.632;20.656;2023-10-31T12:34:06;98557.95;;;34.43;27.76
75852;BME280;64500;52.632;20.656;2023-10-31T12:36:34;98560.02;;;34.29;27.83
75852;BME280;64500;52.632;20.656;2023-10-31T12:39:02;98557.96;;;34.14;27.96
75852;BME280;64500;52.632;20.656;2023-10-31T12:41:30;98567.40;;;34.03;28.00
75852;BME280;64500;52.632;20.656;2023-10-31T12:43:58;98570.73;;;34.03;27.73
75852;BME280;64500;52.632;20.656;2023-10-31T12:46:28;98572.60;;;34.10;27.85
75852;BME280;64500;52.632;20.656;2023-10-31T12:48:59;98570.27;;;34.26;27.48
75852;BME280;64500;52.632;20.656;2023-10-31T12:51:26;98575.83;;;34.32;27.62
75852;BME280;64500;52.632;20.656;2023-10-31T12:53:53;98576.23;;;34.37;27.46